sensor_id;sensor_type;location;lat;lon;timestamp;pressure;altitude;pressure_sealevel;temperature;humidity
21401;BME280;18038;50.166;18.908;2022-09-06T00:00:12;98699.78;;;11.34;48.42
21401;BME280;18038;50.166;18.908;2022-09-06T00:03:24;98701.25;;;11.36;48.16
21401;BME280;18038;50.166;18.908;2022-09-06T00:06:31;98697.09;;;11.34;48.41
21401;BME280;18038;50.166;18.908;2022-09-06T00:09:36;98695.81;;;11.29;48.36
21401;BME280;18038;50.166;18.908;2022-09-06T00:12:45;98689.16;;;11.25;48.68
21401;BME280;18038;50.166;18.908;2022-09-06T00:15:50;98692.50;;;11.27;48.69
21401;BME280;18038;50.166;18.908;2022-09-06T00:18:56;98691.84;;;11.25;48.32
21401;BME280;18038;50.166;18.908;2022-09-06T00:22:06;98695.34;;;11.26;48.43
21401;BME280;18038;50.166;18.908;2022-09-06T00:25:12;98694.06;;;11.22;48.68
21401;BME280;18038;50.166;18.908;2022-09-06T00:28:22;98691.19;;;11.23;48.83
21401;BME280;18038;50.166;18.908;2022-09-06T00:31:28;98690.91;;;11.18;48.40
21401;BME280;18038;50.166;18.908;2022-09-06T00:34:34;98697.47;;;11.16;49.14
21401;BME280;18038;50.166;18.908;2022-09-06T00:37:39;98695.81;;;11.15;48.95
21401;BME280;18038;50.166;18.908;2022-09-06T00:40:45;98689.63;;;11.14;48.92
21401;BME280;18038;50.166;18.908;2022-09-06T00:43:53;98698.09;;;11.18;48.76
21401;BME280;18038;50.166;18.908;2022-09-06T00:46:59;98694.16;;;11.14;49.04
21401;BME280;18038;50.166;18.908;2022-09-06T00:50:07;98688.97;;;11.12;48.96
21401;BME280;18038;50.166;18.908;2022-09-06T00:53:15;98689.72;;;11.06;49.49
21401;BME280;18038;50.166;18.908;2022-09-06T00:56:23;98688.22;;;11.03;49.24
21401;BME280;18038;50.166;18.908;2022-09-06T00:59:35;98691.06;;;11.02;49.29
21401;BME280;18038;50.166;18.908;2022-09-06T01:02:50;98686.38;;;11.04;49.31
21401;BME280;18038;50.166;18.908;2022-09-06T01:06:20;98692.38;;;11.06;49.61
21401;BME280;18038;50.166;18.908;2022-09-06T01:09:49;98680.59;;;11.00;49.55
21401;BME280;18038;50.166;18.908;2022-09-06T01:13:29;98683.63;;;10.97;50.16
21401;BME280;18038;50.166;18.908;2022-09-06T01:16:51;98674.84;;;10.89;50.00
21401;BME280;18038;50.166;18.908;2022-09-06T01:20:28;98684.41;;;10.83;50.27
21401;BME280;18038;50.166;18.908;2022-09-06T01:24:17;98678.25;;;10.82;50.53
21401;BME280;18038;50.166;18.908;2022-09-06T01:28:17;98683.59;;;10.82;50.77
21401;BME280;18038;50.166;18.908;2022-09-06T01:31:37;98676.59;;;10.81;50.06
21401;BME280;18038;50.166;18.908;2022-09-06T01:34:54;98674.25;;;10.78;50.64
21401;BME280;18038;50.166;18.908;2022-09-06T01:38:15;98669.94;;;10.77;50.60
21401;BME280;18038;50.166;18.908;2022-09-06T01:41:21;98664.13;;;10.74;50.83
21401;BME280;18038;50.166;18.908;2022-09-06T01:44:38;98666.50;;;10.69;50.87
21401;BME280;18038;50.166;18.908;2022-09-06T01:48:01;98668.06;;;10.63;51.34
21401;BME280;18038;50.166;18.908;2022-09-06T01:51:25;98662.06;;;10.61;50.93
21401;BME280;18038;50.166;18.908;2022-09-06T01:54:54;98662.72;;;10.63;50.84
21401;BME280;18038;50.166;18.908;2022-09-06T01:58:28;98653.75;;;10.56;51.18
21401;BME280;18038;50.166;18.908;2022-09-06T02:02:01;98651.44;;;10.53;51.75
21401;BME280;18038;50.166;18.908;2022-09-06T02:05:23;98655.69;;;10.47;51.60
21401;BME280;18038;50.166;18.908;2022-09-06T02:08:40;98648.19;;;10.43;51.51
21401;BME280;18038;50.166;18.908;2022-09-06T02:11:55;98649.75;;;10.37;51.85
21401;BME280;18038;50.166;18.908;2022-09-06T02:15:08;98652.47;;;10.29;51.99
21401;BME280;18038;50.166;18.908;2022-09-06T02:18:26;98646.94;;;10.30;52.56
21401;BME280;18038;50.166;18.908;2022-09-06T02:21:39;98651.13;;;10.25;52.88
21401;BME280;18038;50.166;18.908;2022-09-06T02:24:52;98650.47;;;10.23;52.88
21401;BME280;18038;50.166;18.908;2022-09-06T02:28:20;98649.88;;;10.12;53.21
21401;BME280;18038;50.166;18.908;2022-09-06T02:31:39;98653.41;;;10.13;53.00
21401;BME280;18038;50.166;18.908;2022-09-06T02:34:55;98654.53;;;10.18;53.12
21401;BME280;18038;50.166;18.908;2022-09-06T02:38:01;98650.06;;;10.11;53.25
21401;BME280;18038;50.166;18.908;2022-09-06T02:41:10;98659.72;;;10.12;53.59
21401;BME280;18038;50.166;18.908;2022-09-06T02:44:17;98654.03;;;10.15;53.35
21401;BME280;18038;50.166;18.908;2022-09-06T02:47:25;98650.72;;;10.13;53.45
21401;BME280;18038;50.166;18.908;2022-09-06T02:50:41;98653.78;;;10.02;53.65
21401;BME280;18038;50.166;18.908;2022-09-06T02:53:53;98653.16;;;10.00;53.74
21401;BME280;18038;50.166;18.908;2022-09-06T02:56:59;98652.47;;;9.97;54.26
21401;BME280;18038;50.166;18.908;2022-09-06T03:00:16;98644.19;;;9.92;54.24
21401;BME280;18038;50.166;18.908;2022-09-06T03:03:24;98647.38;;;9.88;54.55
21401;BME280;18038;50.166;18.908;2022-09-06T03:06:32;98652.41;;;9.83;54.62
21401;BME280;18038;50.166;18.908;2022-09-06T03:09:38;98653.53;;;9.88;54.41
21401;BME280;18038;50.166;18.908;2022-09-06T03:12:44;98645.06;;;9.85;54.23
21401;BME280;18038;50.166;18.908;2022-09-06T03:15:51;98646.59;;;9.79;54.46
21401;BME280;18038;50.166;18.908;2022-09-06T03:18:58;98643.78;;;9.72;54.56
21401;BME280;18038;50.166;18.908;2022-09-06T03:22:06;98645.81;;;9.70;55.01
21401;BME280;18038;50.166;18.908;2022-09-06T03:25:18;98648.25;;;9.80;54.42
21401;BME280;18038;50.166;18.908;2022-09-06T03:28:23;98635.59;;;9.74;54.74
21401;BME280;18038;50.166;18.908;2022-09-06T03:31:30;98638.13;;;9.75;54.35
21401;BME280;18038;50.166;18.908;2022-09-06T03:34:36;98635.00;;;9.64;54.49
21401;BME280;18038;50.166;18.908;2022-09-06T03:37:48;98626.16;;;9.63;54.88
21401;BME280;18038;50.166;18.908;2022-09-06T03:40:54;98622.53;;;9.56;54.99
21401;BME280;18038;50.166;18.908;2022-09-06T03:44:01;98617.34;;;9.63;54.65
21401;BME280;18038;50.166;18.908;2022-09-06T03:47:07;98618.00;;;9.57;54.69
21401;BME280;18038;50.166;18.908;2022-09-06T03:50:16;98627.34;;;9.61;55.15
21401;BME280;18038;50.166;18.908;2022-09-06T03:53:25;98630.72;;;9.54;55.34
21401;BME280;18038;50.166;18.908;2022-09-06T03:56:32;98626.56;;;9.52;55.32
21401;BME280;18038;50.166;18.908;2022-09-06T03:59:38;98620.22;;;9.53;55.72
21401;BME280;18038;50.166;18.908;2022-09-06T04:02:44;98626.09;;;9.40;55.68
21401;BME280;18038;50.166;18.908;2022-09-06T04:05:49;98627.44;;;9.44;56.00
21401;BME280;18038;50.166;18.908;2022-09-06T04:08:57;98631.75;;;9.45;56.02
21401;BME280;18038;50.166;18.908;2022-09-06T04:12:05;98634.75;;;9.42;56.31
21401;BME280;18038;50.166;18.908;2022-09-06T04:15:11;98633.94;;;9.42;56.00
21401;BME280;18038;50.166;18.908;2022-09-06T04:18:18;98638.59;;;9.40;56.30
21401;BME280;18038;50.166;18.908;2022-09-06T04:21:29;98631.94;;;9.36;56.49
21401;BME280;18038;50.166;18.908;2022-09-06T04:24:37;98643.78;;;9.41;55.82
21401;BME280;18038;50.166;18.908;2022-09-06T04:27:46;98649.31;;;9.31;56.68
21401;BME280;18038;50.166;18.908;2022-09-06T04:30:52;98640.13;;;9.34;56.76
21401;BME280;18038;50.166;18.908;2022-09-06T04:34:05;98636.78;;;9.32;56.54
21401;BME280;18038;50.166;18.908;2022-09-06T04:37:10;98644.75;;;9.40;56.28
21401;BME280;18038;50.166;18.908;2022-09-06T04:40:28;98648.75;;;9.44;56.43
21401;BME280;18038;50.166;18.908;2022-09-06T04:43:42;98646.41;;;9.49;56.18
21401;BME280;18038;50.166;18.908;2022-09-06T04:46:47;98651.19;;;9.54;56.08
21401;BME280;18038;50.166;18.908;2022-09-06T04:49:53;98647.53;;;9.55;55.95
21401;BME280;18038;50.166;18.908;2022-09-06T04:52:59;98645.66;;;9.64;56.03
21401;BME280;18038;50.166;18.908;2022-09-06T04:56:13;98647.63;;;9.70;56.19
21401;BME280;18038;50.166;18.908;2022-09-06T04:59:21;98653.16;;;9.68;56.28
21401;BME280;18038;50.166;18.908;2022-09-06T05:02:28;98661.63;;;9.72;56.27
21401;BME280;18038;50.166;18.908;2022-09-06T05:05:34;98650.53;;;9.91;55.67
21401;BME280;18038;50.166;18.908;2022-09-06T05:08:47;98654.09;;;10.07;55.13
21401;BME280;18038;50.166;18.908;2022-09-06T05:11:56;98655.44;;;10.34;54.51
21401;BME280;18038;50.166;18.908;2022-09-06T05:15:05;98654.94;;;10.91;53.02
21401;BME280;18038;50.166;18.908;2022-09-06T05:18:18;98653.47;;;11.33;51.88
21401;BME280;18038;50.166;18.908;2022-09-06T05:21:24;98662.41;;;11.85;50.34
21401;BME280;18038;50.166;18.908;2022-09-06T05:24:30;98657.41;;;12.18;49.31
21401;BME280;18038;50.166;18.908;2022-09-06T05:27:38;98658.69;;;13.15;47.52
21401;BME280;18038;50.166;18.908;2022-09-06T05:30:46;98656.13;;;13.83;44.85
21401;BME280;18038;50.166;18.908;2022-09-06T05:33:54;98650.63;;;13.98;44.36
21401;BME280;18038;50.166;18.908;2022-09-06T05:37:04;98651.53;;;14.31;44.09
21401;BME280;18038;50.166;18.908;2022-09-06T05:40:10;98652.19;;;14.60;42.58
21401;BME280;18038;50.166;18.908;2022-09-06T05:43:24;98643.06;;;14.48;42.89
21401;BME280;18038;50.166;18.908;2022-09-06T05:46:30;98637.06;;;14.32;43.25
21401;BME280;18038;50.166;18.908;2022-09-06T05:49:37;98629.44;;;14.63;42.58
21401;BME280;18038;50.166;18.908;2022-09-06T05:52:43;98638.94;;;14.52;43.25
21401;BME280;18038;50.166;18.908;2022-09-06T05:55:49;98637.50;;;14.76;42.67
21401;BME280;18038;50.166;18.908;2022-09-06T05:58:57;98640.78;;;15.18;42.12
21401;BME280;18038;50.166;18.908;2022-09-06T06:02:03;98645.09;;;15.26;41.45
21401;BME280;18038;50.166;18.908;2022-09-06T06:05:08;98641.81;;;14.44;43.54
21401;BME280;18038;50.166;18.908;2022-09-06T06:08:15;98644.44;;;14.04;44.24
21401;BME280;18038;50.166;18.908;2022-09-06T06:11:21;98646.09;;;14.05;45.35
21401;BME280;18038;50.166;18.908;2022-09-06T06:14:31;98645.88;;;14.00;45.06
21401;BME280;18038;50.166;18.908;2022-09-06T06:17:37;98644.78;;;13.39;46.52
21401;BME280;18038;50.166;18.908;2022-09-06T06:20:42;98646.66;;;13.11;46.79
21401;BME280;18038;50.166;18.908;2022-09-06T06:23:51;98642.91;;;12.77;47.56
21401;BME280;18038;50.166;18.908;2022-09-06T06:26:58;98644.91;;;12.47;49.24
21401;BME280;18038;50.166;18.908;2022-09-06T06:30:07;98640.56;;;12.67;48.75
21401;BME280;18038;50.166;18.908;2022-09-06T06:33:19;98646.50;;;12.84;48.85
21401;BME280;18038;50.166;18.908;2022-09-06T06:36:26;98652.44;;;13.08;48.24
21401;BME280;18038;50.166;18.908;2022-09-06T06:39:35;98637.53;;;12.98;48.75
21401;BME280;18038;50.166;18.908;2022-09-06T06:42:50;98655.25;;;12.99;48.95
21401;BME280;18038;50.166;18.908;2022-09-06T06:45:58;98644.78;;;12.76;49.81
21401;BME280;18038;50.166;18.908;2022-09-06T06:49:18;98657.19;;;12.77;50.12
21401;BME280;18038;50.166;18.908;2022-09-06T06:52:24;98648.63;;;12.95;50.03
21401;BME280;18038;50.166;18.908;2022-09-06T06:55:30;98654.78;;;13.17;49.73
21401;BME280;18038;50.166;18.908;2022-09-06T06:58:36;98663.56;;;13.04;49.84
21401;BME280;18038;50.166;18.908;2022-09-06T07:01:44;98675.53;;;13.09;49.59
21401;BME280;18038;50.166;18.908;2022-09-06T07:04:54;98675.56;;;13.43;48.85
21401;BME280;18038;50.166;18.908;2022-09-06T07:08:02;98674.19;;;13.61;48.70
21401;BME280;18038;50.166;18.908;2022-09-06T07:11:11;98674.44;;;13.66;48.84
21401;BME280;18038;50.166;18.908;2022-09-06T07:14:21;98681.84;;;13.64;48.90
21401;BME280;18038;50.166;18.908;2022-09-06T07:17:30;98683.44;;;13.86;48.77
21401;BME280;18038;50.166;18.908;2022-09-06T07:20:37;98683.22;;;13.81;48.52
21401;BME280;18038;50.166;18.908;2022-09-06T07:24:10;98684.34;;;14.07;47.97
21401;BME280;18038;50.166;18.908;2022-09-06T07:27:16;98686.41;;;14.05;48.41
21401;BME280;18038;50.166;18.908;2022-09-06T07:30:42;98678.03;;;13.80;49.26
21401;BME280;18038;50.166;18.908;2022-09-06T07:33:51;98684.13;;;14.02;49.05
21401;BME280;18038;50.166;18.908;2022-09-06T07:36:57;98683.53;;;14.13;48.66
21401;BME280;18038;50.166;18.908;2022-09-06T07:40:03;98680.44;;;14.09;49.38
21401;BME280;18038;50.166;18.908;2022-09-06T07:43:10;98672.56;;;14.08;48.49
21401;BME280;18038;50.166;18.908;2022-09-06T07:46:16;98678.78;;;14.15;49.32
21401;BME280;18038;50.166;18.908;2022-09-06T07:49:25;98680.25;;;14.18;49.61
21401;BME280;18038;50.166;18.908;2022-09-06T07:52:36;98676.13;;;14.35;49.39
21401;BME280;18038;50.166;18.908;2022-09-06T07:56:03;98686.06;;;14.34;49.37
21401;BME280;18038;50.166;18.908;2022-09-06T07:59:11;98685.19;;;14.21;50.10
21401;BME280;18038;50.166;18.908;2022-09-06T08:02:18;98676.34;;;14.33;49.85
21401;BME280;18038;50.166;18.908;2022-09-06T08:05:26;98669.09;;;14.41;50.61
21401;BME280;18038;50.166;18.908;2022-09-06T08:08:56;98663.50;;;14.35;50.70
21401;BME280;18038;50.166;18.908;2022-09-06T08:12:03;98660.19;;;14.27;51.91
21401;BME280;18038;50.166;18.908;2022-09-06T08:15:10;98664.13;;;14.24;52.75
21401;BME280;18038;50.166;18.908;2022-09-06T08:18:27;98670.34;;;14.31;53.02
21401;BME280;18038;50.166;18.908;2022-09-06T08:21:36;98675.72;;;14.31;54.40
21401;BME280;18038;50.166;18.908;2022-09-06T08:24:42;98667.88;;;14.56;53.19
21401;BME280;18038;50.166;18.908;2022-09-06T08:27:48;98662.94;;;14.47;52.78
21401;BME280;18038;50.166;18.908;2022-09-06T08:31:08;98678.22;;;14.59;53.37
21401;BME280;18038;50.166;18.908;2022-09-06T08:34:15;98679.09;;;14.80;54.00
21401;BME280;18038;50.166;18.908;2022-09-06T08:37:23;98679.91;;;15.07;51.84
21401;BME280;18038;50.166;18.908;2022-09-06T08:40:31;98679.47;;;15.30;51.25
21401;BME280;18038;50.166;18.908;2022-09-06T08:43:53;98668.38;;;15.65;50.92
21401;BME280;18038;50.166;18.908;2022-09-06T08:47:22;98662.97;;;15.78;49.58
21401;BME280;18038;50.166;18.908;2022-09-06T08:50:29;98661.72;;;15.81;48.87
21401;BME280;18038;50.166;18.908;2022-09-06T08:53:43;98662.72;;;15.93;48.93
21401;BME280;18038;50.166;18.908;2022-09-06T08:57:02;98658.19;;;15.87;48.85
21401;BME280;18038;50.166;18.908;2022-09-06T09:00:14;98659.53;;;16.09;48.23
21401;BME280;18038;50.166;18.908;2022-09-06T09:03:24;98660.72;;;16.20;48.18
21401;BME280;18038;50.166;18.908;2022-09-06T09:06:37;98659.09;;;16.13;47.46
21401;BME280;18038;50.166;18.908;2022-09-06T09:09:45;98653.25;;;16.16;47.36
21401;BME280;18038;50.166;18.908;2022-09-06T09:13:01;98645.34;;;16.21;47.67
21401;BME280;18038;50.166;18.908;2022-09-06T09:16:12;98650.66;;;16.34;47.38
21401;BME280;18038;50.166;18.908;2022-09-06T09:19:19;98641.13;;;16.31;46.55
21401;BME280;18038;50.166;18.908;2022-09-06T09:22:25;98641.91;;;16.14;46.26
21401;BME280;18038;50.166;18.908;2022-09-06T09:25:37;98636.94;;;16.10;46.86
21401;BME280;18038;50.166;18.908;2022-09-06T09:29:01;98638.31;;;16.20;45.40
21401;BME280;18038;50.166;18.908;2022-09-06T09:32:10;98641.22;;;16.50;44.03
21401;BME280;18038;50.166;18.908;2022-09-06T09:35:30;98637.59;;;16.69;43.56
21401;BME280;18038;50.166;18.908;2022-09-06T09:38:41;98624.31;;;16.93;42.54
21401;BME280;18038;50.166;18.908;2022-09-06T09:41:53;98618.56;;;17.45;41.69
21401;BME280;18038;50.166;18.908;2022-09-06T09:45:01;98621.03;;;18.13;39.64
21401;BME280;18038;50.166;18.908;2022-09-06T09:48:19;98615.44;;;18.26;39.76
21401;BME280;18038;50.166;18.908;2022-09-06T09:51:37;98615.78;;;18.30;39.69
21401;BME280;18038;50.166;18.908;2022-09-06T09:54:46;98616.03;;;18.70;37.58
21401;BME280;18038;50.166;18.908;2022-09-06T09:57:58;98600.72;;;19.11;37.03
21401;BME280;18038;50.166;18.908;2022-09-06T10:01:16;98610.84;;;19.80;36.60
21401;BME280;18038;50.166;18.908;2022-09-06T10:04:29;98601.63;;;19.81;34.89
21401;BME280;18038;50.166;18.908;2022-09-06T10:07:49;98606.25;;;20.38;34.39
21401;BME280;18038;50.166;18.908;2022-09-06T10:10:57;98595.41;;;20.88;32.46
21401;BME280;18038;50.166;18.908;2022-09-06T10:14:41;98599.59;;;20.96;31.87
21401;BME280;18038;50.166;18.908;2022-09-06T10:17:50;98598.41;;;21.70;31.91
21401;BME280;18038;50.166;18.908;2022-09-06T10:21:00;98594.94;;;21.74;31.30
21401;BME280;18038;50.166;18.908;2022-09-06T10:24:17;98590.34;;;21.36;31.80
21401;BME280;18038;50.166;18.908;2022-09-06T10:27:29;98587.34;;;21.54;31.44
21401;BME280;18038;50.166;18.908;2022-09-06T10:30:46;98586.19;;;20.56;32.40
21401;BME280;18038;50.166;18.908;2022-09-06T10:34:24;98583.34;;;20.17;32.47
21401;BME280;18038;50.166;18.908;2022-09-06T10:38:12;98592.63;;;20.04;32.86
21401;BME280;18038;50.166;18.908;2022-09-06T10:41:51;98587.72;;;20.18;32.32
21401;BME280;18038;50.166;18.908;2022-09-06T10:45:25;98593.03;;;20.58;32.13
21401;BME280;18038;50.166;18.908;2022-09-06T10:48:44;98588.50;;;20.64;32.18
21401;BME280;18038;50.166;18.908;2022-09-06T10:51:58;98578.53;;;20.36;32.76
21401;BME280;18038;50.166;18.908;2022-09-06T10:55:14;98595.00;;;20.00;33.40
21401;BME280;18038;50.166;18.908;2022-09-06T10:58:27;98602.03;;;20.30;33.37
21401;BME280;18038;50.166;18.908;2022-09-06T11:02:14;98591.03;;;19.51;32.67
21401;BME280;18038;50.166;18.908;2022-09-06T11:05:44;98600.13;;;19.09;32.79
21401;BME280;18038;50.166;18.908;2022-09-06T11:09:01;98580.16;;;18.87;32.76
21401;BME280;18038;50.166;18.908;2022-09-06T11:12:25;98592.00;;;19.33;32.95
21401;BME280;18038;50.166;18.908;2022-09-06T11:15:44;98584.94;;;19.08;33.69
21401;BME280;18038;50.166;18.908;2022-09-06T11:18:59;98579.19;;;18.69;33.02
21401;BME280;18038;50.166;18.908;2022-09-06T11:22:34;98568.50;;;18.63;34.22
21401;BME280;18038;50.166;18.908;2022-09-06T11:26:27;98574.22;;;19.13;33.57
21401;BME280;18038;50.166;18.908;2022-09-06T11:29:41;98570.59;;;18.96;32.49
21401;BME280;18038;50.166;18.908;2022-09-06T11:33:12;98566.91;;;19.37;32.74
21401;BME280;18038;50.166;18.908;2022-09-06T11:36:34;98566.16;;;19.82;31.53
21401;BME280;18038;50.166;18.908;2022-09-06T11:40:04;98566.22;;;19.99;31.82
21401;BME280;18038;50.166;18.908;2022-09-06T11:43:44;98562.00;;;20.20;31.06
21401;BME280;18038;50.166;18.908;2022-09-06T11:46:59;98557.28;;;19.99;30.88
21401;BME280;18038;50.166;18.908;2022-09-06T11:54:22;98549.28;;;20.21;32.03
21401;BME280;18038;50.166;18.908;2022-09-06T11:57:35;98531.91;;;20.56;31.16
21401;BME280;18038;50.166;18.908;2022-09-06T12:00:42;98531.22;;;20.65;31.49
21401;BME280;18038;50.166;18.908;2022-09-06T12:04:04;98526.41;;;20.51;31.00
21401;BME280;18038;50.166;18.908;2022-09-06T12:07:12;98519.19;;;20.39;31.56
21401;BME280;18038;50.166;18.908;2022-09-06T12:10:44;98530.75;;;20.01;31.97
21401;BME280;18038;50.166;18.908;2022-09-06T12:13:59;98518.13;;;19.49;33.07
21401;BME280;18038;50.166;18.908;2022-09-06T12:17:25;98525.94;;;19.91;32.53
21401;BME280;18038;50.166;18.908;2022-09-06T12:21:02;98514.66;;;20.11;33.45
21401;BME280;18038;50.166;18.908;2022-09-06T12:27:59;98512.03;;;20.50;32.96
21401;BME280;18038;50.166;18.908;2022-09-06T12:31:31;98516.38;;;20.51;31.78
21401;BME280;18038;50.166;18.908;2022-09-06T12:34:44;98511.38;;;20.26;32.05
21401;BME280;18038;50.166;18.908;2022-09-06T12:38:13;98503.13;;;20.04;32.41
21401;BME280;18038;50.166;18.908;2022-09-06T12:41:21;98501.53;;;19.91;33.40
21401;BME280;18038;50.166;18.908;2022-09-06T12:44:31;98502.91;;;19.77;33.59
21401;BME280;18038;50.166;18.908;2022-09-06T12:47:42;98504.31;;;19.51;34.28
21401;BME280;18038;50.166;18.908;2022-09-06T12:50:59;98497.78;;;19.47;33.97
21401;BME280;18038;50.166;18.908;2022-09-06T12:54:20;98482.91;;;19.49;34.59
21401;BME280;18038;50.166;18.908;2022-09-06T12:57:27;98490.28;;;19.54;34.90
21401;BME280;18038;50.166;18.908;2022-09-06T13:00:36;98493.56;;;19.85;34.40
21401;BME280;18038;50.166;18.908;2022-09-06T13:03:54;98496.59;;;19.43;35.23
21401;BME280;18038;50.166;18.908;2022-09-06T13:07:08;98492.00;;;19.43;34.74
21401;BME280;18038;50.166;18.908;2022-09-06T13:10:22;98481.50;;;19.47;35.17
21401;BME280;18038;50.166;18.908;2022-09-06T13:13:29;98484.88;;;19.54;35.66
21401;BME280;18038;50.166;18.908;2022-09-06T13:16:43;98481.53;;;19.64;36.07
21401;BME280;18038;50.166;18.908;2022-09-06T13:19:55;98483.25;;;19.53;36.03
21401;BME280;18038;50.166;18.908;2022-09-06T13:23:06;98473.84;;;19.44;36.22
21401;BME280;18038;50.166;18.908;2022-09-06T13:26:14;98474.78;;;19.21;37.22
21401;BME280;18038;50.166;18.908;2022-09-06T13:29:53;98467.81;;;19.25;36.51
21401;BME280;18038;50.166;18.908;2022-09-06T13:33:01;98455.66;;;19.27;36.25
21401;BME280;18038;50.166;18.908;2022-09-06T13:36:22;98461.09;;;19.15;37.39
21401;BME280;18038;50.166;18.908;2022-09-06T13:39:33;98459.66;;;19.36;36.83
21401;BME280;18038;50.166;18.908;2022-09-06T13:42:58;98457.03;;;19.42;38.13
21401;BME280;18038;50.166;18.908;2022-09-06T13:46:06;98463.47;;;19.52;37.29
21401;BME280;18038;50.166;18.908;2022-09-06T13:49:13;98456.38;;;19.51;37.78
21401;BME280;18038;50.166;18.908;2022-09-06T13:52:21;98452.72;;;19.57;37.73
21401;BME280;18038;50.166;18.908;2022-09-06T13:55:30;98458.81;;;19.81;37.57
21401;BME280;18038;50.166;18.908;2022-09-06T13:58:37;98452.34;;;19.99;36.88
21401;BME280;18038;50.166;18.908;2022-09-06T14:01:45;98451.19;;;19.95;36.88
21401;BME280;18038;50.166;18.908;2022-09-06T14:05:00;98457.78;;;19.99;35.81
21401;BME280;18038;50.166;18.908;2022-09-06T14:08:15;98444.59;;;19.91;37.10
21401;BME280;18038;50.166;18.908;2022-09-06T14:11:21;98449.25;;;20.08;36.61
21401;BME280;18038;50.166;18.908;2022-09-06T14:14:27;98444.78;;;19.85;36.83
21401;BME280;18038;50.166;18.908;2022-09-06T14:17:38;98446.53;;;19.62;37.53
21401;BME280;18038;50.166;18.908;2022-09-06T14:20:51;98441.03;;;19.57;36.52
21401;BME280;18038;50.166;18.908;2022-09-06T14:24:02;98440.19;;;20.02;36.50
21401;BME280;18038;50.166;18.908;2022-09-06T14:27:10;98430.50;;;20.06;36.81
21401;BME280;18038;50.166;18.908;2022-09-06T14:30:16;98433.69;;;19.86;36.20
21401;BME280;18038;50.166;18.908;2022-09-06T14:33:21;98433.38;;;19.99;36.41
21401;BME280;18038;50.166;18.908;2022-09-06T14:36:32;98420.63;;;19.83;36.42
21401;BME280;18038;50.166;18.908;2022-09-06T14:39:40;98429.34;;;20.02;37.09
21401;BME280;18038;50.166;18.908;2022-09-06T14:42:46;98421.69;;;19.82;36.62
21401;BME280;18038;50.166;18.908;2022-09-06T14:45:52;98419.13;;;19.58;36.75
21401;BME280;18038;50.166;18.908;2022-09-06T14:49:08;98418.44;;;19.51;36.14
21401;BME280;18038;50.166;18.908;2022-09-06T14:52:14;98421.47;;;19.38;36.40
21401;BME280;18038;50.166;18.908;2022-09-06T14:55:22;98421.06;;;19.46;36.70
21401;BME280;18038;50.166;18.908;2022-09-06T14:58:30;98415.13;;;19.32;36.97
21401;BME280;18038;50.166;18.908;2022-09-06T15:01:36;98408.91;;;19.32;36.61
21401;BME280;18038;50.166;18.908;2022-09-06T15:04:43;98401.84;;;19.31;36.63
21401;BME280;18038;50.166;18.908;2022-09-06T15:07:48;98412.00;;;19.12;37.00
21401;BME280;18038;50.166;18.908;2022-09-06T15:10:57;98420.03;;;19.19;37.19
21401;BME280;18038;50.166;18.908;2022-09-06T15:14:07;98415.22;;;19.21;37.70
21401;BME280;18038;50.166;18.908;2022-09-06T15:17:17;98413.41;;;19.14;37.15
21401;BME280;18038;50.166;18.908;2022-09-06T15:20:22;98409.94;;;19.02;37.13
21401;BME280;18038;50.166;18.908;2022-09-06T15:23:32;98402.34;;;18.87;37.33
21401;BME280;18038;50.166;18.908;2022-09-06T15:26:41;98412.00;;;18.83;37.45
21401;BME280;18038;50.166;18.908;2022-09-06T15:29:47;98417.47;;;18.60;38.11
21401;BME280;18038;50.166;18.908;2022-09-06T15:32:53;98416.56;;;18.83;37.52
21401;BME280;18038;50.166;18.908;2022-09-06T15:36:07;98412.47;;;18.80;38.08
21401;BME280;18038;50.166;18.908;2022-09-06T15:39:16;98410.59;;;18.81;37.48
21401;BME280;18038;50.166;18.908;2022-09-06T15:42:24;98412.34;;;18.75;37.47
21401;BME280;18038;50.166;18.908;2022-09-06T15:45:45;98419.31;;;18.71;37.61
21401;BME280;18038;50.166;18.908;2022-09-06T15:48:53;98413.84;;;18.54;38.00
21401;BME280;18038;50.166;18.908;2022-09-06T15:52:01;98410.66;;;18.45;38.00
21401;BME280;18038;50.166;18.908;2022-09-06T15:55:09;98401.00;;;18.61;37.79
21401;BME280;18038;50.166;18.908;2022-09-06T15:58:31;98405.81;;;18.59;38.12
21401;BME280;18038;50.166;18.908;2022-09-06T16:01:39;98407.34;;;18.43;38.30
21401;BME280;18038;50.166;18.908;2022-09-06T16:04:46;98404.53;;;18.50;38.14
21401;BME280;18038;50.166;18.908;2022-09-06T16:08:12;98404.16;;;18.58;38.69
21401;BME280;18038;50.166;18.908;2022-09-06T16:11:28;98388.97;;;18.69;37.87
21401;BME280;18038;50.166;18.908;2022-09-06T16:14:37;98388.31;;;18.50;38.18
21401;BME280;18038;50.166;18.908;2022-09-06T16:17:46;98386.56;;;18.44;37.95
21401;BME280;18038;50.166;18.908;2022-09-06T16:20:53;98383.03;;;18.32;39.07
21401;BME280;18038;50.166;18.908;2022-09-06T16:24:00;98377.38;;;18.21;39.42
21401;BME280;18038;50.166;18.908;2022-09-06T16:27:09;98383.63;;;18.10;40.17
21401;BME280;18038;50.166;18.908;2022-09-06T16:30:24;98383.50;;;18.05;40.32
21401;BME280;18038;50.166;18.908;2022-09-06T16:33:40;98392.44;;;18.05;39.75
21401;BME280;18038;50.166;18.908;2022-09-06T16:36:46;98369.41;;;18.03;39.95
21401;BME280;18038;50.166;18.908;2022-09-06T16:39:56;98375.50;;;17.98;40.38
21401;BME280;18038;50.166;18.908;2022-09-06T16:43:09;98375.41;;;17.93;40.56
21401;BME280;18038;50.166;18.908;2022-09-06T16:46:24;98371.63;;;17.82;41.15
21401;BME280;18038;50.166;18.908;2022-09-06T16:49:32;98369.50;;;17.73;41.58
21401;BME280;18038;50.166;18.908;2022-09-06T16:52:38;98370.53;;;17.72;41.32
21401;BME280;18038;50.166;18.908;2022-09-06T16:55:45;98365.03;;;17.67;41.68